Time;durP1;ratioP1;P1;durP2;ratioP2;P2;SDS_P1;SDS_P2;PMS_P1;PMS_P2;Temp;Humidity;BMP_temperature;BMP_pressure;BME280_temperature;BME280_humidity;BME280_pressure;Samples;Min_cycle;Max_cycle;Signal;HPM_P1;HPM_P2
2021/12/22 00:00:36;;;;;;;3.15;1.88;;;26.20;84.70;;;;;;5074899;28;20053;-60
2021/12/22 00:03:08;;;;;;;3.00;1.52;;;26.30;84.70;;;;;;5074054;28;20151;-58
2021/12/22 00:05:43;;;;;;;6.40;2.13;;;26.30;84.60;;;;;;5074615;28;20410;-58
2021/12/22 00:08:13;;;;;;;4.30;1.90;;;26.30;84.50;;;;;;5074382;28;20099;-56
2021/12/22 00:10:45;;;;;;;6.53;2.13;;;26.30;84.60;;;;;;5074207;28;20031;-54
2021/12/22 00:13:12;;;;;;;4.88;2.08;;;26.30;84.50;;;;;;5074460;28;20032;-54
2021/12/22 00:15:40;;;;;;;6.10;1.85;;;26.30;84.60;;;;;;5074357;28;20028;-57
2021/12/22 00:18:08;;;;;;;4.57;2.00;;;26.30;84.70;;;;;;5073962;28;20017;-58
2021/12/22 00:20:35;;;;;;;7.07;2.42;;;26.30;84.50;;;;;;5074384;28;20540;-57
2021/12/22 00:23:03;;;;;;;5.47;2.42;;;26.30;84.40;;;;;;5073211;28;20047;-56
2021/12/22 00:25:30;;;;;;;2.55;1.38;;;26.40;84.60;;;;;;5074245;28;20032;-58
2021/12/22 00:27:59;;;;;;;5.47;1.92;;;26.40;84.70;;;;;;5074251;28;20029;-56
2021/12/22 00:30:27;;;;;;;3.88;1.95;;;26.40;84.50;;;;;;5073938;28;20107;-59
2021/12/22 00:33:02;;;;;;;4.05;1.88;;;26.40;84.50;;;;;;5073958;28;20435;-59
2021/12/22 00:35:37;;;;;;;4.85;2.17;;;26.40;84.40;;;;;;5073951;28;20051;-57
2021/12/22 00:38:06;;;;;;;5.03;1.95;;;26.50;84.20;;;;;;5072655;28;20128;-59
2021/12/22 00:40:33;;;;;;;5.55;2.58;;;26.50;84.10;;;;;;5073457;28;20064;-59
2021/12/22 00:43:00;;;;;;;4.68;2.30;;;26.50;84.20;;;;;;5073508;28;20036;-60
2021/12/22 00:45:31;;;;;;;4.15;1.75;;;26.50;83.90;;;;;;5073672;28;20037;-59
2021/12/22 00:47:58;;;;;;;5.22;2.28;;;26.60;84.20;;;;;;5073357;28;20048;-56
2021/12/22 00:50:26;;;;;;;4.47;2.33;;;26.60;84.20;;;;;;5073642;28;20028;-50
2021/12/22 00:52:53;;;;;;;4.22;1.70;;;26.70;83.80;;;;;;5071850;28;20029;-57
2021/12/22 00:55:21;;;;;;;3.38;1.85;;;26.70;84.10;;;;;;5073669;28;20039;-57
2021/12/22 00:57:50;;;;;;;2.42;1.40;;;26.60;84.00;;;;;;5073418;28;20024;-56
2021/12/22 01:00:19;;;;;;;5.28;2.17;;;26.60;84.00;;;;;;5073204;28;20104;-59
2021/12/22 01:02:47;;;;;;;3.95;1.75;;;26.70;83.90;;;;;;5073808;28;20111;-61
2021/12/22 01:05:17;;;;;;;5.57;2.40;;;26.70;83.80;;;;;;5073042;28;20490;-57
2021/12/22 01:07:46;;;;;;;3.22;1.88;;;26.80;83.20;;;;;;5073201;28;20016;-58
2021/12/22 01:10:16;;;;;;;3.53;1.85;;;26.90;83.20;;;;;;5072966;28;20375;-60
2021/12/22 01:12:43;;;;;;;4.25;2.42;;;26.90;83.20;;;;;;5072538;28;20086;-48
2021/12/22 01:15:12;;;;;;;2.97;1.75;;;26.90;82.90;;;;;;5073039;28;20031;-58
2021/12/22 01:17:45;;;;;;;3.38;1.50;;;27.00;83.00;;;;;;5071950;28;20020;-59
2021/12/22 01:20:22;;;;;;;3.10;1.58;;;27.00;83.00;;;;;;5071921;28;20086;-57
2021/12/22 01:22:50;;;;;;;8.98;2.75;;;27.00;83.00;;;;;;5071789;28;20024;-58
2021/12/22 01:25:22;;;;;;;1.88;1.17;;;27.00;82.50;;;;;;5072680;28;20070;-53
2021/12/22 01:27:51;;;;;;;3.70;1.92;;;27.00;82.70;;;;;;5072931;28;20463;-58
2021/12/22 01:30:24;;;;;;;6.28;2.10;;;27.10;82.60;;;;;;5072800;28;20545;-55
2021/12/22 01:32:55;;;;;;;3.10;1.88;;;27.10;82.30;;;;;;5073082;28;20039;-55
2021/12/22 01:35:27;;;;;;;4.10;2.13;;;27.10;82.40;;;;;;5072132;28;20054;-59
2021/12/22 01:37:54;;;;;;;2.63;1.65;;;27.20;82.00;;;;;;5071248;28;20042;-60
2021/12/22 01:40:23;;;;;;;3.10;1.95;;;27.20;82.20;;;;;;5072969;28;20047;-59
2021/12/22 01:42:52;;;;;;;5.28;2.25;;;27.20;82.10;;;;;;5071269;28;20042;-55
2021/12/22 01:51:07;;;;;;;3.50;1.50;;;27.30;81.60;;;;;;5073489;28;20070;-51
2021/12/22 01:53:41;;;;;;;2.13;1.40;;;27.30;82.10;;;;;;5072653;28;20043;-58
2021/12/22 01:56:23;;;;;;;4.38;2.00;;;27.30;82.20;;;;;;5071385;28;20086;-57
2021/12/22 01:58:56;;;;;;;3.55;1.90;;;27.30;81.80;;;;;;5071330;28;20474;-54
2021/12/22 02:01:25;;;;;;;3.88;1.75;;;27.40;81.50;;;;;;5072887;28;20424;-61
2021/12/22 02:03:53;;;;;;;4.22;2.53;;;27.40;81.60;;;;;;5072159;28;20044;-58
2021/12/22 02:06:22;;;;;;;4.18;2.50;;;27.50;80.90;;;;;;5072589;28;20425;-53
2021/12/22 02:08:53;;;;;;;1.83;1.48;;;27.50;81.00;;;;;;5071195;28;20120;-52
2021/12/22 02:11:21;;;;;;;3.08;1.80;;;27.50;81.30;;;;;;5072408;28;20025;-63
2021/12/22 02:13:57;;;;;;;3.17;1.92;;;27.50;81.50;;;;;;5076185;28;20035;-59
2021/12/22 02:16:33;;;;;;;2.70;1.48;;;27.40;80.70;;;;;;5076682;28;20075;-58
2021/12/22 02:19:03;;;;;;;5.13;1.80;;;27.40;81.60;;;;;;5075483;28;20031;-54
2021/12/22 02:21:36;;;;;;;2.92;1.67;;;27.40;81.30;;;;;;5076327;28;20043;-60
2021/12/22 02:24:06;;;;;;;2.92;1.60;;;27.40;81.60;;;;;;5075780;28;20036;-59
2021/12/22 02:26:40;;;;;;;3.75;1.92;;;27.40;81.50;;;;;;5076126;28;20021;-56
2021/12/22 02:29:18;;;;;;;5.28;2.22;;;27.40;82.10;;;;;;5076271;28;20074;-62
2021/12/22 02:32:00;;;;;;;2.78;1.67;;;27.40;81.30;;;;;;5076371;28;20021;-59
2021/12/22 02:34:28;;;;;;;3.50;1.92;;;27.40;82.00;;;;;;5075312;28;20124;-48
2021/12/22 02:37:00;;;;;;;2.83;2.08;;;27.50;81.80;;;;;;5076381;28;20035;-58
2021/12/22 02:39:26;;;;;;;;;;;27.50;81.10;;;;;;5076792;28;20032;-57
2021/12/22 02:41:54;;;;;;;5.20;2.40;;;27.50;81.90;;;;;;5074876;28;19911;-60
2021/12/22 02:44:23;;;;;;;4.32;1.88;;;27.50;81.50;;;;;;5075913;28;20413;-57
2021/12/22 02:46:51;;;;;;;4.40;2.22;;;27.50;81.60;;;;;;5076414;28;20017;-58
2021/12/22 02:49:18;;;;;;;5.07;2.30;;;27.60;81.30;;;;;;5075194;28;20479;-60
2021/12/22 02:51:46;;;;;;;3.53;1.80;;;27.60;81.40;;;;;;5076035;28;20025;-53
2021/12/22 02:54:20;;;;;;;5.60;2.17;;;27.60;81.40;;;;;;5075181;28;20190;-59
2021/12/22 02:59:40;;;;;;;4.68;2.58;;;27.60;81.20;;;;;;5075653;28;20031;-59
2021/12/22 03:04:42;;;;;;;3.88;1.92;;;27.70;81.00;;;;;;5075782;28;20483;-56
2021/12/22 03:07:17;;;;;;;5.30;2.17;;;27.60;81.30;;;;;;5075467;28;20028;-54
2021/12/22 03:09:44;;;;;;;6.03;2.47;;;27.60;81.80;;;;;;5075474;28;20035;-55
2021/12/22 03:12:15;;;;;;;2.85;1.95;;;27.60;81.30;;;;;;5075077;28;20032;-49
2021/12/22 03:14:42;;;;;;;7.18;2.30;;;27.60;82.20;;;;;;5074596;28;20075;-59
2021/12/22 03:17:10;;;;;;;3.05;1.95;;;27.60;81.10;;;;;;5074724;28;20119;-56
2021/12/22 03:19:37;;;;;;;3.40;1.50;;;27.50;81.90;;;;;;5074888;28;20060;-59
2021/12/22 03:22:10;;;;;;;3.67;1.80;;;27.60;82.00;;;;;;5075045;28;20433;-60
2021/12/22 03:24:40;;;;;;;2.45;1.45;;;27.60;81.50;;;;;;5074338;28;20085;-61
2021/12/22 03:27:08;;;;;;;2.88;1.73;;;27.50;82.10;;;;;;5074749;28;20093;-54
2021/12/22 03:29:38;;;;;;;5.10;2.20;;;27.60;82.10;;;;;;5075488;28;20031;-56
2021/12/22 03:32:08;;;;;;;5.03;2.03;;;27.60;80.80;;;;;;5074997;28;20475;-53
2021/12/22 03:34:36;;;;;;;4.68;2.17;;;27.70;81.60;;;;;;5073434;28;20108;-52
2021/12/22 03:37:04;;;;;;;5.65;2.28;;;27.70;81.50;;;;;;5074920;28;20392;-59
2021/12/22 03:39:32;;;;;;;3.63;2.00;;;27.70;81.60;;;;;;5074756;28;20023;-58
2021/12/22 03:42:00;;;;;;;5.05;2.00;;;27.70;81.30;;;;;;5074714;28;20125;-53
2021/12/22 03:44:27;;;;;;;3.75;2.42;;;27.70;81.70;;;;;;5072795;28;20032;-59
2021/12/22 03:46:56;;;;;;;3.97;2.35;;;27.70;81.70;;;;;;5075018;28;20463;-61
2021/12/22 03:49:24;;;;;;;4.00;1.85;;;27.70;81.80;;;;;;5073584;28;20043;-57
2021/12/22 03:51:51;;;;;;;6.05;2.45;;;27.70;81.60;;;;;;5074525;28;20024;-57
2021/12/22 03:54:19;;;;;;;3.63;2.13;;;27.80;81.70;;;;;;5073745;28;20550;-52
2021/12/22 03:56:46;;;;;;;8.90;2.38;;;27.70;81.30;;;;;;5073839;28;20056;-58
2021/12/22 03:59:14;;;;;;;2.70;1.77;;;27.80;80.80;;;;;;5074682;28;20035;-60
2021/12/22 04:01:41;;;;;;;4.47;2.13;;;27.80;81.50;;;;;;5074734;28;20035;-57
2021/12/22 04:04:15;;;;;;;4.00;2.47;;;27.80;81.50;;;;;;5072580;28;20429;-60
2021/12/22 04:06:44;;;;;;;4.30;2.42;;;27.80;81.70;;;;;;5074244;28;20128;-51
2021/12/22 04:09:13;;;;;;;3.80;2.03;;;27.80;81.50;;;;;;5074132;28;20442;-55
2021/12/22 04:11:41;;;;;;;4.50;2.47;;;27.90;81.20;;;;;;5073995;28;20021;-58
2021/12/22 04:14:10;;;;;;;6.53;2.80;;;27.80;81.30;;;;;;5074045;28;20063;-59
2021/12/22 04:16:37;;;;;;;3.65;2.33;;;27.90;80.60;;;;;;5073012;28;20059;-57
2021/12/22 04:19:05;;;;;;;2.85;1.83;;;27.90;80.80;;;;;;5074062;28;20131;-51
2021/12/22 04:21:33;;;;;;;3.83;2.30;;;27.90;81.00;;;;;;5073278;28;20206;-59
2021/12/22 04:24:01;;;;;;;5.07;2.60;;;27.90;80.90;;;;;;5073812;28;20123;-59
2021/12/22 04:26:32;;;;;;;4.03;2.38;;;27.90;81.30;;;;;;5073809;28;20089;-51
2021/12/22 04:29:00;;;;;;;3.05;1.92;;;27.80;81.30;;;;;;5073949;28;20107;-59
2021/12/22 04:31:28;;;;;;;6.05;2.22;;;27.80;81.40;;;;;;5073474;28;20071;-57
2021/12/22 04:33:55;;;;;;;3.88;1.90;;;27.80;81.40;;;;;;5073862;28;20424;-59
2021/12/22 04:36:23;;;;;;;6.45;2.47;;;27.70;81.80;;;;;;5072681;28;20387;-56
2021/12/22 04:38:50;;;;;;;4.22;2.20;;;27.70;81.90;;;;;;5073395;28;20029;-55
2021/12/22 04:41:18;;;;;;;3.05;1.95;;;27.60;81.90;;;;;;5073872;28;20025;-54
2021/12/22 04:43:45;;;;;;;6.78;2.88;;;27.60;82.20;;;;;;5073380;28;20085;-55
2021/12/22 04:46:12;;;;;;;3.80;2.20;;;27.60;81.70;;;;;;5073471;28;20444;-59
2021/12/22 04:48:40;;;;;;;6.38;2.55;;;27.50;82.20;;;;;;5073439;28;20035;-54
2021/12/22 04:51:14;;;;;;;5.03;2.65;;;27.50;82.50;;;;;;5073136;28;20017;-53
2021/12/22 04:53:53;;;;;;;3.35;2.10;;;27.50;82.30;;;;;;5072960;28;20036;-54
2021/12/22 04:56:20;;;;;;;3.65;2.15;;;27.50;82.70;;;;;;5073457;28;20364;-60
2021/12/22 04:58:47;;;;;;;4.90;2.60;;;27.50;82.80;;;;;;5073564;28;20028;-57
2021/12/22 05:01:15;;;;;;;5.43;2.47;;;27.40;82.80;;;;;;5073355;28;20020;-53
2021/12/22 05:03:43;;;;;;;2.85;1.95;;;27.40;82.60;;;;;;5072663;28;20028;-57
2021/12/22 05:06:10;;;;;;;4.55;2.20;;;27.40;82.90;;;;;;5072592;28;20459;-59
2021/12/22 05:08:38;;;;;;;3.20;2.05;;;27.30;83.40;;;;;;5072613;28;20035;-55
2021/12/22 05:11:05;;;;;;;4.75;2.30;;;27.30;83.30;;;;;;5073070;28;20024;-55
2021/12/22 05:13:35;;;;;;;4.50;2.80;;;27.20;83.50;;;;;;5072097;28;20488;-55
2021/12/22 05:16:05;;;;;;;5.68;2.78;;;27.20;83.10;;;;;;5072700;28;20031;-54
2021/12/22 05:21:21;;;;;;;2.80;1.88;;;27.20;84.10;;;;;;5072752;28;20032;-56
2021/12/22 05:23:50;;;;;;;6.03;2.22;;;27.10;84.30;;;;;;5072814;28;20124;-56
2021/12/22 05:26:18;;;;;;;4.50;2.00;;;27.10;83.90;;;;;;5072776;28;20024;-59
2021/12/22 05:28:45;;;;;;;4.90;2.38;;;27.10;84.40;;;;;;5072740;28;20032;-54
2021/12/22 05:31:13;;;;;;;4.45;2.25;;;27.10;83.70;;;;;;5071685;28;20090;-56
2021/12/22 05:33:40;;;;;;;5.22;3.15;;;27.00;84.20;;;;;;5071824;28;20040;-59
2021/12/22 05:36:08;;;;;;;4.88;2.55;;;27.00;84.60;;;;;;5072663;28;20028;-53
2021/12/22 05:38:35;;;;;;;5.30;2.33;;;27.00;84.80;;;;;;5072391;28;20043;-53
2021/12/22 05:41:03;;;;;;;3.83;2.38;;;27.00;85.70;;;;;;5072955;28;20412;-55
2021/12/22 05:43:30;;;;;;;5.45;2.78;;;27.00;85.10;;;;;;5073107;28;20028;-53
2021/12/22 05:45:58;;;;;;;5.25;2.40;;;26.90;85.10;;;;;;5072770;28;20479;-61
2021/12/22 05:48:26;;;;;;;4.53;2.35;;;26.90;85.00;;;;;;5072122;28;20032;-60
2021/12/22 05:50:57;;;;;;;4.25;2.25;;;26.90;84.80;;;;;;5072187;28;20056;-53
2021/12/22 05:53:25;;;;;;;5.32;2.60;;;26.90;85.40;;;;;;5070966;28;20037;-54
2021/12/22 05:55:54;;;;;;;4.43;2.53;;;26.80;85.30;;;;;;5072258;28;20197;-57
2021/12/22 05:58:22;;;;;;;6.28;3.00;;;26.90;85.60;;;;;;5072354;28;20146;-52
2021/12/22 06:00:51;;;;;;;4.47;2.58;;;26.80;85.20;;;;;;5072828;28;20035;-53
2021/12/22 06:03:18;;;;;;;6.97;2.55;;;26.80;85.50;;;;;;5072274;28;20040;-52
2021/12/22 06:05:46;;;;;;;5.32;2.83;;;26.80;85.60;;;;;;5072358;28;20021;-58
2021/12/22 06:08:13;;;;;;;5.57;2.78;;;26.70;85.60;;;;;;5071905;28;20067;-59
2021/12/22 06:10:40;;;;;;;6.82;2.80;;;26.70;85.70;;;;;;5072282;28;20024;-58
2021/12/22 06:13:10;;;;;;;5.43;2.67;;;26.70;85.80;;;;;;5072792;28;20501;-53
2021/12/22 06:15:39;;;;;;;3.47;2.28;;;26.70;85.80;;;;;;5072406;28;20027;-61
2021/12/22 06:18:07;;;;;;;5.53;2.67;;;26.70;85.90;;;;;;5072167;28;20028;-61
2021/12/22 06:20:35;;;;;;;5.15;2.20;;;26.70;85.90;;;;;;5070935;28;20067;-57
2021/12/22 06:23:02;;;;;;;6.55;2.88;;;26.70;85.80;;;;;;5072259;28;20029;-57
2021/12/22 06:25:30;;;;;;;3.85;2.08;;;26.70;85.80;;;;;;5072374;28;20033;-61
2021/12/22 06:27:57;;;;;;;6.65;2.65;;;26.70;85.80;;;;;;5071894;28;20031;-54
2021/12/22 06:30:25;;;;;;;5.13;2.63;;;26.60;85.30;;;;;;5072355;28;20032;-57
2021/12/22 06:32:53;;;;;;;5.72;2.95;;;26.60;85.60;;;;;;5072387;28;20029;-57
2021/12/22 06:35:21;;;;;;;3.92;2.40;;;26.60;85.90;;;;;;5072079;28;20108;-53
2021/12/22 06:37:49;;;;;;;8.52;2.70;;;26.60;85.80;;;;;;5071829;28;20029;-55
2021/12/22 06:40:16;;;;;;;5.50;2.97;;;26.60;85.90;;;;;;5072099;28;20029;-61
2021/12/22 06:42:47;;;;;;;4.15;2.35;;;26.60;85.90;;;;;;5070738;28;20043;-59
2021/12/22 06:45:15;;;;;;;4.93;2.55;;;26.60;86.00;;;;;;5072296;28;20081;-53
2021/12/22 06:47:43;;;;;;;3.05;2.28;;;26.50;85.70;;;;;;5072108;28;20020;-60
2021/12/22 06:50:13;;;;;;;4.85;2.50;;;26.50;85.70;;;;;;5070336;28;20544;-55
2021/12/22 06:52:41;;;;;;;3.47;2.35;;;26.50;85.90;;;;;;5071962;28;20070;-61
2021/12/22 06:55:09;;;;;;;4.63;2.67;;;26.50;85.70;;;;;;5070647;28;20119;-61
2021/12/22 06:57:36;;;;;;;4.97;2.40;;;26.50;85.80;;;;;;5072079;28;20025;-57
2021/12/22 07:00:09;;;;;;;3.17;1.90;;;26.50;85.80;;;;;;5074187;28;20024;-59
2021/12/22 07:02:37;;;;;;;4.97;2.95;;;26.50;85.60;;;;;;5074478;28;20029;-59
2021/12/22 07:05:07;;;;;;;6.15;2.65;;;26.50;86.10;;;;;;5075604;28;20122;-57
2021/12/22 07:07:35;;;;;;;3.88;2.30;;;26.50;86.30;;;;;;5075400;28;20028;-59
2021/12/22 07:10:04;;;;;;;4.78;2.55;;;26.50;86.30;;;;;;5075269;28;20036;-61
2021/12/22 07:12:31;;;;;;;5.35;2.80;;;26.40;86.40;;;;;;5075186;28;20024;-61
2021/12/22 07:14:59;;;;;;;4.90;2.53;;;26.40;86.40;;;;;;5074974;28;20024;-54
2021/12/22 07:17:26;;;;;;;3.70;2.67;;;26.40;86.40;;;;;;5075402;28;20042;-58
2021/12/22 07:19:53;;;;;;;6.72;2.78;;;26.40;86.30;;;;;;5075226;28;20025;-56
2021/12/22 07:22:21;;;;;;;3.55;2.50;;;26.40;86.30;;;;;;5074906;28;20439;-56
2021/12/22 07:24:48;;;;;;;4.75;2.63;;;26.40;86.40;;;;;;5075033;28;20029;-58
2021/12/22 07:27:16;;;;;;;4.85;2.65;;;26.40;86.20;;;;;;5075188;28;20036;-59
2021/12/22 07:29:43;;;;;;;4.53;2.13;;;26.40;86.30;;;;;;5075218;28;20039;-56
2021/12/22 07:32:11;;;;;;;5.18;2.25;;;26.40;86.20;;;;;;5073588;28;20024;-59
2021/12/22 07:34:42;;;;;;;4.05;2.15;;;26.40;86.20;;;;;;5074967;28;20025;-62
2021/12/22 07:37:28;;;;;;;5.18;2.42;;;26.40;86.30;;;;;;5074020;28;20028;-61
2021/12/22 07:39:55;;;;;;;3.65;2.25;;;26.40;86.30;;;;;;5074557;28;20475;-59
2021/12/22 07:42:23;;;;;;;3.45;1.80;;;26.40;86.20;;;;;;5075430;28;20066;-58
2021/12/22 07:44:50;;;;;;;4.47;2.55;;;26.30;86.30;;;;;;5073737;28;20037;-53
2021/12/22 07:47:18;;;;;;;3.72;2.15;;;26.30;86.30;;;;;;5075020;28;20027;-54
2021/12/22 07:49:45;;;;;;;4.53;2.20;;;26.30;86.30;;;;;;5074950;28;20029;-61
2021/12/22 07:52:12;;;;;;;4.15;2.10;;;26.30;86.40;;;;;;5074499;28;20020;-61
2021/12/22 07:54:40;;;;;;;3.67;2.10;;;26.30;86.30;;;;;;5074421;28;20097;-62
2021/12/22 07:57:07;;;;;;;4.72;2.47;;;26.30;86.20;;;;;;5074942;28;20025;-59
2021/12/22 07:59:35;;;;;;;6.97;2.10;;;26.30;86.10;;;;;;5074831;28;20013;-58
2021/12/22 08:02:02;;;;;;;5.63;2.08;;;26.30;86.20;;;;;;5074282;28;20028;-60
2021/12/22 08:04:30;;;;;;;3.70;1.92;;;26.30;86.20;;;;;;5074238;28;20035;-59
2021/12/22 08:06:57;;;;;;;4.18;2.10;;;26.30;86.30;;;;;;5073997;28;20444;-59
2021/12/22 08:09:26;;;;;;;5.05;1.98;;;26.30;86.30;;;;;;5073797;28;20029;-58
2021/12/22 08:11:55;;;;;;;3.55;2.10;;;26.30;86.30;;;;;;5073587;28;20443;-55
2021/12/22 08:14:24;;;;;;;3.72;2.30;;;26.30;86.20;;;;;;5073917;28;20287;-61
2021/12/22 08:16:51;;;;;;;3.47;1.98;;;26.30;86.20;;;;;;5074071;28;20029;-52
2021/12/22 08:19:19;;;;;;;4.40;1.98;;;26.20;86.40;;;;;;5074260;28;20038;-58
2021/12/22 08:21:47;;;;;;;3.20;2.05;;;26.20;86.30;;;;;;5074587;28;20090;-57
2021/12/22 08:24:14;;;;;;;3.65;1.73;;;26.20;86.20;;;;;;5074162;28;20036;-61
2021/12/22 08:26:42;;;;;;;3.40;2.10;;;26.20;86.20;;;;;;5074386;28;20031;-50
2021/12/22 08:29:09;;;;;;;5.00;2.30;;;26.20;86.50;;;;;;5073396;28;20025;-51
2021/12/22 08:31:37;;;;;;;5.25;2.40;;;26.20;86.80;;;;;;5074335;28;20021;-58
2021/12/22 08:34:05;;;;;;;3.35;1.85;;;26.10;86.90;;;;;;5073697;28;20055;-49
2021/12/22 08:39:19;;;;;;;4.60;1.98;;;26.10;86.30;;;;;;5074570;28;20461;-58
2021/12/22 08:41:48;;;;;;;4.10;2.15;;;26.10;86.30;;;;;;5073869;28;20200;-56
2021/12/22 08:44:23;;;;;;;4.65;2.13;;;26.10;86.80;;;;;;5073938;28;20102;-56
2021/12/22 08:46:52;;;;;;;2.35;1.83;;;26.10;86.80;;;;;;5074082;28;20442;-57
2021/12/22 08:49:26;;;;;;;3.80;2.03;;;26.00;86.60;;;;;;5073828;28;20025;-55
2021/12/22 08:51:58;;;;;;;3.55;1.98;;;26.00;86.60;;;;;;5072512;28;20027;-60
2021/12/22 08:54:28;;;;;;;4.35;2.10;;;26.00;86.90;;;;;;5073581;28;20052;-59
2021/12/22 08:56:56;;;;;;;4.15;1.90;;;26.00;86.80;;;;;;5073670;28;20052;-52
2021/12/22 08:59:25;;;;;;;3.20;1.90;;;26.00;86.60;;;;;;5072183;28;20029;-55
2021/12/22 09:01:53;;;;;;;4.90;2.20;;;26.00;87.00;;;;;;5073319;28;20024;-52
2021/12/22 09:04:21;;;;;;;4.55;2.20;;;26.00;86.90;;;;;;5073443;28;20475;-56
2021/12/22 09:06:50;;;;;;;3.38;2.20;;;26.00;86.90;;;;;;5073214;28;20025;-53
2021/12/22 09:09:20;;;;;;;3.35;2.08;;;25.90;87.00;;;;;;5073369;28;20027;-62
2021/12/22 09:11:49;;;;;;;4.43;2.33;;;25.90;86.90;;;;;;5073391;28;20435;-57
2021/12/22 09:14:18;;;;;;;5.22;2.00;;;25.90;87.20;;;;;;5073551;28;20028;-60
2021/12/22 09:16:46;;;;;;;5.00;2.42;;;25.90;87.20;;;;;;5072016;28;20024;-56
2021/12/22 09:19:20;;;;;;;5.78;2.33;;;25.90;87.20;;;;;;5073296;28;20040;-58
2021/12/22 09:21:47;;;;;;;4.30;2.17;;;25.90;87.30;;;;;;5072546;28;20104;-58
2021/12/22 09:24:14;;;;;;;4.53;2.22;;;25.90;87.20;;;;;;5072962;28;20028;-58
2021/12/22 09:26:42;;;;;;;5.95;2.60;;;25.90;87.40;;;;;;5073384;28;20023;-58
2021/12/22 09:29:10;;;;;;;3.90;1.92;;;25.90;87.20;;;;;;5073357;28;20492;-56
2021/12/22 09:31:38;;;;;;;3.70;2.08;;;25.90;87.40;;;;;;5072040;28;20056;-55
2021/12/22 09:34:08;;;;;;;3.65;2.10;;;25.80;87.40;;;;;;5073098;28;20100;-60
2021/12/22 09:36:35;;;;;;;3.58;2.10;;;25.80;87.20;;;;;;5072845;28;20107;-61
2021/12/22 09:39:04;;;;;;;4.35;2.00;;;25.80;87.30;;;;;;5072835;28;20028;-61
2021/12/22 09:41:33;;;;;;;4.75;2.15;;;25.80;87.30;;;;;;5072982;28;20021;-59
2021/12/22 09:44:00;;;;;;;5.47;2.08;;;25.80;87.30;;;;;;5072589;28;20032;-62
2021/12/22 09:46:29;;;;;;;6.90;2.65;;;25.80;87.30;;;;;;5072992;28;20017;-61
2021/12/22 09:49:07;;;;;;;5.32;1.77;;;25.80;87.50;;;;;;5073017;28;20028;-59
2021/12/22 09:54:05;;;;;;;4.80;2.22;;;25.70;87.50;;;;;;5072589;28;20145;-62
2021/12/22 09:56:33;;;;;;;2.80;1.75;;;25.70;87.50;;;;;;5072940;28;20052;-61
2021/12/22 09:59:01;;;;;;;5.07;2.17;;;25.70;87.50;;;;;;5072855;28;20111;-56
2021/12/22 10:01:28;;;;;;;3.10;1.90;;;25.70;87.50;;;;;;5072632;28;20363;-60
2021/12/22 10:03:59;;;;;;;4.38;1.88;;;25.70;88.00;;;;;;5072480;28;20371;-61
2021/12/22 10:06:28;;;;;;;3.15;2.05;;;25.70;87.40;;;;;;5072371;28;20025;-60
2021/12/22 10:09:06;;;;;;;4.40;1.88;;;25.70;87.60;;;;;;5071479;28;20027;-60
2021/12/22 10:11:42;;;;;;;3.78;2.00;;;25.70;87.70;;;;;;5072670;28;20033;-60
2021/12/22 10:14:22;;;;;;;4.70;2.00;;;25.60;88.30;;;;;;5072387;28;20471;-50
2021/12/22 10:16:52;;;;;;;3.85;2.00;;;25.60;87.70;;;;;;5072761;28;20028;-61
2021/12/22 10:19:21;;;;;;;3.33;2.08;;;25.60;87.70;;;;;;5072693;28;20081;-56
2021/12/22 10:22:02;;;;;;;2.95;1.92;;;25.60;87.60;;;;;;5072703;28;20027;-53
2021/12/22 10:24:46;;;;;;;2.55;1.52;;;25.60;87.60;;;;;;5072615;28;20044;-61
2021/12/22 10:27:22;;;;;;;3.40;1.80;;;25.60;87.60;;;;;;5072799;28;20036;-59
2021/12/22 10:29:50;;;;;;;4.60;2.10;;;25.60;87.50;;;;;;5072849;28;20029;-58
2021/12/22 10:32:18;;;;;;;2.83;1.98;;;25.60;87.60;;;;;;5072454;28;20021;-60
2021/12/22 10:35:00;;;;;;;3.75;1.92;;;25.60;87.70;;;;;;5076423;28;20051;-59
2021/12/22 10:37:36;;;;;;;4.78;2.00;;;25.50;87.60;;;;;;5076128;28;20021;-60
2021/12/22 10:40:22;;;;;;;3.38;2.10;;;25.60;87.80;;;;;;5076505;28;20383;-58
2021/12/22 10:42:50;;;;;;;3.97;2.03;;;25.50;87.70;;;;;;5076602;28;20028;-57
2021/12/22 10:45:19;;;;;;;5.13;2.33;;;25.50;87.80;;;;;;5076622;28;20479;-59
2021/12/22 10:50:38;;;;;;;5.27;2.17;;;25.50;87.90;;;;;;5076712;28;20102;-63
2021/12/22 10:53:09;;;;;;;4.43;1.95;;;25.50;88.00;;;;;;5076009;28;20379;-60
2021/12/22 10:55:42;;;;;;;5.20;2.13;;;25.50;88.10;;;;;;5074572;28;20039;-58
2021/12/22 10:58:29;;;;;;;4.43;2.08;;;25.50;88.10;;;;;;5075790;28;20028;-60
2021/12/22 11:01:05;;;;;;;4.55;2.28;;;25.50;88.00;;;;;;5076156;28;20028;-54
2021/12/22 11:03:50;;;;;;;3.95;1.67;;;25.50;88.10;;;;;;5076150;28;20020;-52
2021/12/22 11:06:29;;;;;;;5.13;2.08;;;25.50;88.20;;;;;;5075716;28;20025;-56
2021/12/22 11:08:57;;;;;;;4.10;2.15;;;25.50;88.10;;;;;;5076171;28;20031;-57
2021/12/22 11:11:29;;;;;;;3.72;1.75;;;25.50;88.30;;;;;;5075865;28;20028;-51
2021/12/22 11:14:30;;;;;;;2.88;1.77;;;25.50;88.20;;;;;;5075547;28;20059;-59
2021/12/22 11:17:03;;;;;;;5.25;2.38;;;25.50;88.20;;;;;;5068360;28;20029;-60
2021/12/22 11:19:56;;;;;;;5.45;1.75;;;25.50;88.20;;;;;;5075737;28;20029;-57
2021/12/22 11:22:47;;;;;;;3.15;1.65;;;25.50;88.10;;;;;;5075826;28;20414;-60
2021/12/22 11:25:14;;;;;;;4.93;1.88;;;25.50;88.00;;;;;;5075620;28;20040;-61
2021/12/22 11:27:42;;;;;;;4.00;2.28;;;25.50;88.10;;;;;;5075565;28;20051;-60
2021/12/22 11:30:10;;;;;;;3.28;2.08;;;25.50;88.10;;;;;;5075457;28;20025;-56
2021/12/22 11:32:38;;;;;;;4.78;2.13;;;25.40;88.80;;;;;;5075754;28;20115;-62
2021/12/22 11:35:09;;;;;;;4.47;2.08;;;25.50;88.30;;;;;;5075638;28;20016;-58
2021/12/22 11:37:40;;;;;;;2.95;1.77;;;25.40;88.00;;;;;;5075442;28;20125;-60
2021/12/22 11:40:11;;;;;;;4.50;2.00;;;25.40;88.10;;;;;;5075488;28;20024;-57
2021/12/22 11:42:39;;;;;;;3.20;1.92;;;25.40;88.10;;;;;;5075581;28;20383;-57
2021/12/22 11:45:27;;;;;;;2.58;1.90;;;25.40;88.00;;;;;;5074882;28;20370;-62
2021/12/22 11:47:58;;;;;;;3.47;1.70;;;25.40;88.00;;;;;;5074401;28;20108;-59
2021/12/22 11:50:29;;;;;;;3.83;1.98;;;25.40;88.10;;;;;;5075952;28;20482;-61
2021/12/22 11:53:10;;;;;;;3.50;1.83;;;25.40;88.20;;;;;;5075733;28;20029;-63
2021/12/22 11:55:43;;;;;;;3.42;2.03;;;25.40;88.10;;;;;;5075448;28;20318;-59
2021/12/22 11:58:37;;;;;;;3.42;1.55;;;25.40;88.10;;;;;;5075400;28;20051;-61
2021/12/22 12:01:11;;;;;;;4.25;1.90;;;25.40;88.10;;;;;;5074836;28;20036;-62
2021/12/22 12:03:49;;;;;;;4.30;1.85;;;25.40;88.00;;;;;;5075164;28;20032;-62
2021/12/22 12:06:17;;;;;;;5.22;1.90;;;25.40;88.00;;;;;;5074939;28;20528;-61
2021/12/22 12:08:50;;;;;;;3.40;1.58;;;25.40;88.10;;;;;;5075153;28;20020;-60
2021/12/22 12:11:22;;;;;;;3.80;2.15;;;25.40;88.20;;;;;;5074887;28;20109;-60
2021/12/22 12:13:55;;;;;;;3.42;1.60;;;25.40;88.30;;;;;;5074881;28;20025;-60
2021/12/22 12:22:16;;;;;;;3.50;1.88;;;25.40;88.30;;;;;;5074796;28;20458;-61
2021/12/22 12:24:59;;;;;;;4.65;2.15;;;25.40;88.30;;;;;;5073665;28;20527;-62
2021/12/22 12:27:47;;;;;;;7.25;1.98;;;25.30;88.20;;;;;;5075469;28;20032;-56
2021/12/22 12:30:23;;;;;;;4.47;2.00;;;25.30;88.30;;;;;;5074355;28;20038;-61
2021/12/22 12:32:53;;;;;;;3.00;1.65;;;25.30;88.20;;;;;;5074624;28;20398;-62
2021/12/22 12:35:26;;;;;;;5.30;1.58;;;25.30;88.30;;;;;;5074302;28;20158;-61
2021/12/22 12:38:05;;;;;;;4.13;1.75;;;25.30;88.30;;;;;;5074191;28;20028;-60
2021/12/22 12:41:12;;;;;;;5.00;1.88;;;25.20;88.50;;;;;;5074143;28;20029;-59
2021/12/22 12:48:50;;;;;;;3.67;2.13;;;25.20;88.30;;;;;;5074138;28;20027;-57
2021/12/22 12:51:24;;;;;;;3.80;1.95;;;25.20;88.30;;;;;;5073938;28;20032;-58
2021/12/22 12:53:52;;;;;;;4.25;2.00;;;25.20;88.50;;;;;;5074371;28;20044;-62
2021/12/22 12:56:23;;;;;;;3.85;1.70;;;25.20;88.60;;;;;;5073449;28;20025;-60
2021/12/22 12:58:59;;;;;;;2.95;1.73;;;25.20;88.60;;;;;;5074111;28;20016;-54
2021/12/22 13:01:51;;;;;;;4.45;2.03;;;25.20;88.60;;;;;;5073900;28;20029;-61
2021/12/22 13:04:31;;;;;;;3.67;1.70;;;25.20;88.60;;;;;;5074122;28;20055;-54
2021/12/22 13:07:05;;;;;;;4.00;1.77;;;25.20;88.70;;;;;;5073708;28;20028;-55
2021/12/22 13:09:34;;;;;;;4.55;2.22;;;25.20;88.80;;;;;;5072498;28;20031;-58
2021/12/22 13:18:28;;;;;;;6.07;2.20;;;25.20;88.80;;;;;;5073714;28;20489;-63
2021/12/22 13:20:58;;;;;;;3.55;1.70;;;25.20;88.80;;;;;;5073009;28;20024;-60
2021/12/22 13:23:31;;;;;;;3.20;2.00;;;25.20;88.90;;;;;;5073256;28;20070;-60
2021/12/22 13:26:00;;;;;;;4.38;2.10;;;25.20;88.90;;;;;;5071800;28;20039;-57
2021/12/22 13:28:31;;;;;;;6.03;2.03;;;25.20;89.00;;;;;;5073562;28;20485;-58
2021/12/22 13:31:02;;;;;;;4.25;2.13;;;25.20;89.00;;;;;;5073758;28;20028;-57
2021/12/22 13:33:36;;;;;;;4.60;1.98;;;25.20;89.10;;;;;;5073573;28;20035;-57
2021/12/22 13:36:11;;;;;;;6.47;2.08;;;25.20;89.10;;;;;;5072852;28;20056;-62
2021/12/22 13:38:42;;;;;;;4.18;1.70;;;25.10;89.10;;;;;;5073523;28;20024;-56
2021/12/22 13:41:14;;;;;;;4.88;1.92;;;25.10;89.00;;;;;;5073161;28;20475;-57
2021/12/22 13:43:56;;;;;;;5.15;2.47;;;25.10;89.20;;;;;;5071813;28;20037;-48